sensor_id;sensor_type;location;lat;lon;timestamp;P1;durP1;ratioP1;P2;durP2;ratioP2
41039;SDS011;48586;50.122;18.972;2022-09-09T13:15:57;2.35;;;1.30;;
41039;SDS011;48586;50.122;18.972;2022-09-09T13:19:01;2.05;;;1.20;;
41039;SDS011;48586;50.122;18.972;2022-09-09T13:22:12;3.17;;;1.20;;
41039;SDS011;48586;50.122;18.972;2022-09-09T13:25:20;2.35;;;1.60;;
41039;SDS011;48586;50.122;18.972;2022-09-09T13:28:26;3.83;;;1.35;;
41039;SDS011;48586;50.122;18.972;2022-09-09T13:31:33;6.60;;;1.63;;
41039;SDS011;48586;50.122;18.972;2022-09-09T13:34:37;1.75;;;1.10;;
41039;SDS011;48586;50.122;18.972;2022-09-09T13:37:40;2.65;;;1.23;;
41039;SDS011;48586;50.122;18.972;2022-09-09T13:40:51;2.10;;;1.35;;
41039;SDS011;48586;50.122;18.972;2022-09-09T13:43:55;4.75;;;1.10;;
41039;SDS011;48586;50.122;18.972;2022-09-09T13:47:03;2.83;;;1.23;;
41039;SDS011;48586;50.122;18.972;2022-09-09T13:50:18;1.30;;;0.93;;
41039;SDS011;48586;50.122;18.972;2022-09-09T13:53:21;4.07;;;1.40;;
41039;SDS011;48586;50.122;18.972;2022-09-09T13:56:23;2.22;;;1.10;;
41039;SDS011;48586;50.122;18.972;2022-09-09T13:59:25;4.65;;;1.40;;
41039;SDS011;48586;50.122;18.972;2022-09-09T14:02:28;1.38;;;1.10;;
41039;SDS011;48586;50.122;18.972;2022-09-09T14:05:31;5.70;;;1.30;;
41039;SDS011;48586;50.122;18.972;2022-09-09T14:08:34;3.83;;;1.38;;
41039;SDS011;48586;50.122;18.972;2022-09-09T14:11:37;1.50;;;1.20;;
41039;SDS011;48586;50.122;18.972;2022-09-09T14:14:40;2.58;;;1.35;;
41039;SDS011;48586;50.122;18.972;2022-09-09T14:17:44;3.58;;;1.50;;
41039;SDS011;48586;50.122;18.972;2022-09-09T14:20:46;3.33;;;1.45;;
41039;SDS011;48586;50.122;18.972;2022-09-09T14:23:48;3.35;;;1.30;;
41039;SDS011;48586;50.122;18.972;2022-09-09T14:26:50;2.63;;;1.10;;
41039;SDS011;48586;50.122;18.972;2022-09-09T14:29:52;3.03;;;1.27;;
41039;SDS011;48586;50.122;18.972;2022-09-09T14:32:56;3.70;;;1.30;;
41039;SDS011;48586;50.122;18.972;2022-09-09T14:36:02;5.55;;;1.30;;
41039;SDS011;48586;50.122;18.972;2022-09-09T14:39:05;1.87;;;1.20;;
41039;SDS011;48586;50.122;18.972;2022-09-09T14:42:06;4.00;;;1.50;;
41039;SDS011;48586;50.122;18.972;2022-09-09T14:45:12;3.90;;;1.80;;
41039;SDS011;48586;50.122;18.972;2022-09-09T14:48:15;3.42;;;1.35;;
41039;SDS011;48586;50.122;18.972;2022-09-09T14:51:17;3.58;;;1.40;;
41039;SDS011;48586;50.122;18.972;2022-09-09T14:54:22;7.60;;;1.40;;
41039;SDS011;48586;50.122;18.972;2022-09-09T14:57:24;4.43;;;1.40;;
41039;SDS011;48586;50.122;18.972;2022-09-09T15:00:26;4.05;;;2.13;;
41039;SDS011;48586;50.122;18.972;2022-09-09T15:03:29;4.95;;;2.10;;
41039;SDS011;48586;50.122;18.972;2022-09-09T15:06:31;3.85;;;2.13;;
41039;SDS011;48586;50.122;18.972;2022-09-09T15:09:38;5.18;;;1.80;;
41039;SDS011;48586;50.122;18.972;2022-09-09T15:12:39;4.43;;;2.03;;
41039;SDS011;48586;50.122;18.972;2022-09-09T15:15:42;4.68;;;2.70;;
41039;SDS011;48586;50.122;18.972;2022-09-09T15:18:46;3.72;;;2.35;;
41039;SDS011;48586;50.122;18.972;2022-09-09T15:21:48;5.43;;;1.70;;
41039;SDS011;48586;50.122;18.972;2022-09-09T15:24:50;5.97;;;1.67;;
41039;SDS011;48586;50.122;18.972;2022-09-09T15:27:51;2.05;;;1.40;;
41039;SDS011;48586;50.122;18.972;2022-09-09T15:30:53;3.47;;;1.40;;
41039;SDS011;48586;50.122;18.972;2022-09-09T15:33:59;5.00;;;1.35;;
41039;SDS011;48586;50.122;18.972;2022-09-09T15:37:02;6.78;;;1.60;;
41039;SDS011;48586;50.122;18.972;2022-09-09T15:40:04;3.25;;;1.23;;
41039;SDS011;48586;50.122;18.972;2022-09-09T15:43:07;4.13;;;1.45;;
41039;SDS011;48586;50.122;18.972;2022-09-09T15:46:24;2.57;;;1.40;;
41039;SDS011;48586;50.122;18.972;2022-09-09T15:49:29;3.20;;;1.40;;
41039;SDS011;48586;50.122;18.972;2022-09-09T15:52:31;3.00;;;1.52;;
41039;SDS011;48586;50.122;18.972;2022-09-09T15:55:33;4.88;;;1.60;;
41039;SDS011;48586;50.122;18.972;2022-09-09T15:58:35;4.97;;;2.03;;
41039;SDS011;48586;50.122;18.972;2022-09-09T16:01:38;3.53;;;1.75;;
41039;SDS011;48586;50.122;18.972;2022-09-09T16:04:42;4.03;;;2.38;;
41039;SDS011;48586;50.122;18.972;2022-09-09T16:07:44;4.13;;;2.75;;
41039;SDS011;48586;50.122;18.972;2022-09-09T16:10:46;8.35;;;3.53;;
41039;SDS011;48586;50.122;18.972;2022-09-09T16:13:49;8.43;;;3.40;;
41039;SDS011;48586;50.122;18.972;2022-09-09T16:16:52;6.00;;;3.70;;
41039;SDS011;48586;50.122;18.972;2022-09-09T16:19:55;8.85;;;3.60;;
41039;SDS011;48586;50.122;18.972;2022-09-09T16:22:57;8.07;;;4.20;;
41039;SDS011;48586;50.122;18.972;2022-09-09T16:26:02;11.57;;;4.60;;
41039;SDS011;48586;50.122;18.972;2022-09-09T16:29:04;19.75;;;4.25;;
41039;SDS011;48586;50.122;18.972;2022-09-09T16:32:06;11.65;;;5.30;;
41039;SDS011;48586;50.122;18.972;2022-09-09T16:35:10;13.32;;;5.10;;
41039;SDS011;48586;50.122;18.972;2022-09-09T16:38:11;15.57;;;5.55;;
41039;SDS011;48586;50.122;18.972;2022-09-09T16:41:14;17.45;;;7.10;;
41039;SDS011;48586;50.122;18.972;2022-09-09T16:44:16;11.35;;;6.65;;
41039;SDS011;48586;50.122;18.972;2022-09-09T16:47:19;24.00;;;9.43;;
41039;SDS011;48586;50.122;18.972;2022-09-09T16:50:23;27.17;;;10.45;;
41039;SDS011;48586;50.122;18.972;2022-09-09T16:53:25;33.88;;;13.95;;
41039;SDS011;48586;50.122;18.972;2022-09-09T16:56:27;26.50;;;12.30;;
41039;SDS011;48586;50.122;18.972;2022-09-09T16:59:31;31.23;;;11.43;;
41039;SDS011;48586;50.122;18.972;2022-09-09T17:02:34;19.38;;;9.25;;
41039;SDS011;48586;50.122;18.972;2022-09-09T17:05:40;11.77;;;6.10;;
41039;SDS011;48586;50.122;18.972;2022-09-09T17:08:42;11.13;;;6.25;;
41039;SDS011;48586;50.122;18.972;2022-09-09T17:11:44;13.48;;;6.80;;
41039;SDS011;48586;50.122;18.972;2022-09-09T17:14:47;13.48;;;6.15;;
41039;SDS011;48586;50.122;18.972;2022-09-09T17:17:49;19.15;;;9.77;;
41039;SDS011;48586;50.122;18.972;2022-09-09T17:20:55;13.93;;;7.05;;
41039;SDS011;48586;50.122;18.972;2022-09-09T17:23:57;17.83;;;7.45;;
41039;SDS011;48586;50.122;18.972;2022-09-09T17:26:59;22.33;;;8.73;;
41039;SDS011;48586;50.122;18.972;2022-09-09T17:30:02;18.02;;;9.07;;
41039;SDS011;48586;50.122;18.972;2022-09-09T17:33:04;23.98;;;8.70;;
41039;SDS011;48586;50.122;18.972;2022-09-09T17:36:09;19.92;;;9.70;;
41039;SDS011;48586;50.122;18.972;2022-09-09T17:39:13;16.05;;;8.63;;
41039;SDS011;48586;50.122;18.972;2022-09-09T17:42:15;15.20;;;7.95;;
41039;SDS011;48586;50.122;18.972;2022-09-09T17:45:17;18.58;;;8.50;;
41039;SDS011;48586;50.122;18.972;2022-09-09T17:48:19;46.13;;;21.50;;
41039;SDS011;48586;50.122;18.972;2022-09-09T17:51:23;22.10;;;9.68;;
41039;SDS011;48586;50.122;18.972;2022-09-09T17:54:29;18.58;;;7.80;;
41039;SDS011;48586;50.122;18.972;2022-09-09T18:00:35;18.48;;;6.47;;
41039;SDS011;48586;50.122;18.972;2022-09-09T18:03:37;13.88;;;6.97;;
41039;SDS011;48586;50.122;18.972;2022-09-09T18:06:42;22.02;;;7.82;;
41039;SDS011;48586;50.122;18.972;2022-09-09T18:09:45;15.48;;;7.30;;
41039;SDS011;48586;50.122;18.972;2022-09-09T18:12:49;17.63;;;8.00;;
41039;SDS011;48586;50.122;18.972;2022-09-09T18:15:51;18.20;;;7.63;;
41039;SDS011;48586;50.122;18.972;2022-09-09T18:18:53;19.45;;;8.57;;
41039;SDS011;48586;50.122;18.972;2022-09-09T18:21:59;18.90;;;9.27;;
41039;SDS011;48586;50.122;18.972;2022-09-09T18:25:01;20.20;;;10.53;;
41039;SDS011;48586;50.122;18.972;2022-09-09T18:28:05;27.30;;;10.82;;
41039;SDS011;48586;50.122;18.972;2022-09-09T18:31:08;32.17;;;14.77;;
41039;SDS011;48586;50.122;18.972;2022-09-09T18:34:11;36.22;;;21.85;;
41039;SDS011;48586;50.122;18.972;2022-09-09T18:37:15;26.20;;;11.25;;
41039;SDS011;48586;50.122;18.972;2022-09-09T18:40:17;24.88;;;11.05;;
41039;SDS011;48586;50.122;18.972;2022-09-09T18:43:20;27.67;;;10.88;;
41039;SDS011;48586;50.122;18.972;2022-09-09T18:46:22;20.58;;;9.25;;
41039;SDS011;48586;50.122;18.972;2022-09-09T18:49:26;20.77;;;9.60;;
41039;SDS011;48586;50.122;18.972;2022-09-09T18:52:29;23.35;;;10.20;;
41039;SDS011;48586;50.122;18.972;2022-09-09T18:55:31;19.70;;;8.32;;
41039;SDS011;48586;50.122;18.972;2022-09-09T18:58:33;16.67;;;8.00;;
41039;SDS011;48586;50.122;18.972;2022-09-09T19:01:36;21.83;;;8.88;;
41039;SDS011;48586;50.122;18.972;2022-09-09T19:04:38;25.23;;;10.10;;
41039;SDS011;48586;50.122;18.972;2022-09-09T19:10:46;53.28;;;22.23;;
41039;SDS011;48586;50.122;18.972;2022-09-09T19:13:49;29.73;;;13.05;;
41039;SDS011;48586;50.122;18.972;2022-09-09T19:16:52;44.70;;;19.73;;
41039;SDS011;48586;50.122;18.972;2022-09-09T19:19:54;48.13;;;22.50;;
41039;SDS011;48586;50.122;18.972;2022-09-09T19:22:57;40.85;;;18.38;;
41039;SDS011;48586;50.122;18.972;2022-09-09T19:26:00;43.22;;;17.65;;
41039;SDS011;48586;50.122;18.972;2022-09-09T19:29:02;38.10;;;17.67;;
41039;SDS011;48586;50.122;18.972;2022-09-09T19:32:04;32.50;;;15.45;;
41039;SDS011;48586;50.122;18.972;2022-09-09T19:35:07;29.10;;;14.55;;
41039;SDS011;48586;50.122;18.972;2022-09-09T19:38:12;25.80;;;13.60;;
41039;SDS011;48586;50.122;18.972;2022-09-09T19:41:15;28.50;;;13.38;;
41039;SDS011;48586;50.122;18.972;2022-09-09T19:44:18;31.17;;;14.07;;
41039;SDS011;48586;50.122;18.972;2022-09-09T19:47:21;24.50;;;13.70;;
41039;SDS011;48586;50.122;18.972;2022-09-09T19:50:23;24.08;;;14.27;;
41039;SDS011;48586;50.122;18.972;2022-09-09T19:53:26;29.90;;;13.80;;
41039;SDS011;48586;50.122;18.972;2022-09-09T19:56:29;21.73;;;13.60;;
41039;SDS011;48586;50.122;18.972;2022-09-09T19:59:32;41.25;;;21.50;;
41039;SDS011;48586;50.122;18.972;2022-09-09T20:02:35;32.58;;;16.60;;
41039;SDS011;48586;50.122;18.972;2022-09-09T20:05:38;28.15;;;15.85;;
41039;SDS011;48586;50.122;18.972;2022-09-09T20:08:42;29.10;;;14.68;;
41039;SDS011;48586;50.122;18.972;2022-09-09T20:11:46;22.35;;;12.68;;
41039;SDS011;48586;50.122;18.972;2022-09-09T20:14:49;22.20;;;11.82;;
41039;SDS011;48586;50.122;18.972;2022-09-09T20:17:51;21.52;;;12.07;;
41039;SDS011;48586;50.122;18.972;2022-09-09T20:20:55;16.92;;;9.48;;
41039;SDS011;48586;50.122;18.972;2022-09-09T20:24:01;16.73;;;8.63;;
41039;SDS011;48586;50.122;18.972;2022-09-09T20:27:05;19.10;;;8.77;;
41039;SDS011;48586;50.122;18.972;2022-09-09T20:30:07;15.85;;;8.07;;
41039;SDS011;48586;50.122;18.972;2022-09-09T20:33:10;17.08;;;8.15;;
41039;SDS011;48586;50.122;18.972;2022-09-09T20:36:13;16.70;;;7.95;;
41039;SDS011;48586;50.122;18.972;2022-09-09T20:39:19;18.02;;;7.90;;
41039;SDS011;48586;50.122;18.972;2022-09-09T20:42:21;17.77;;;7.47;;
41039;SDS011;48586;50.122;18.972;2022-09-09T20:45:24;19.70;;;7.75;;
41039;SDS011;48586;50.122;18.972;2022-09-09T20:48:26;15.80;;;7.70;;
41039;SDS011;48586;50.122;18.972;2022-09-09T20:51:28;16.70;;;7.97;;
41039;SDS011;48586;50.122;18.972;2022-09-09T20:54:33;18.08;;;8.52;;
41039;SDS011;48586;50.122;18.972;2022-09-09T20:57:36;18.40;;;9.32;;
41039;SDS011;48586;50.122;18.972;2022-09-09T21:00:38;23.15;;;10.15;;
41039;SDS011;48586;50.122;18.972;2022-09-09T21:03:40;25.25;;;9.63;;
41039;SDS011;48586;50.122;18.972;2022-09-09T21:06:42;20.40;;;9.32;;
41039;SDS011;48586;50.122;18.972;2022-09-09T21:09:45;19.65;;;9.75;;
41039;SDS011;48586;50.122;18.972;2022-09-09T21:12:47;18.27;;;9.25;;
41039;SDS011;48586;50.122;18.972;2022-09-09T21:15:50;18.77;;;9.30;;
41039;SDS011;48586;50.122;18.972;2022-09-09T21:18:52;27.20;;;9.63;;
41039;SDS011;48586;50.122;18.972;2022-09-09T21:21:55;17.77;;;9.05;;
41039;SDS011;48586;50.122;18.972;2022-09-09T21:24:59;27.00;;;9.68;;
41039;SDS011;48586;50.122;18.972;2022-09-09T21:28:02;16.33;;;9.27;;
41039;SDS011;48586;50.122;18.972;2022-09-09T21:31:05;26.83;;;10.00;;
41039;SDS011;48586;50.122;18.972;2022-09-09T21:34:08;22.83;;;9.13;;
41039;SDS011;48586;50.122;18.972;2022-09-09T21:37:12;20.35;;;11.52;;
41039;SDS011;48586;50.122;18.972;2022-09-09T21:40:16;27.13;;;11.00;;
41039;SDS011;48586;50.122;18.972;2022-09-09T21:43:18;21.75;;;11.02;;
41039;SDS011;48586;50.122;18.972;2022-09-09T21:46:23;17.70;;;9.63;;
41039;SDS011;48586;50.122;18.972;2022-09-09T21:49:26;16.98;;;10.80;;
41039;SDS011;48586;50.122;18.972;2022-09-09T21:52:28;19.50;;;9.93;;
41039;SDS011;48586;50.122;18.972;2022-09-09T21:55:33;18.63;;;9.60;;
41039;SDS011;48586;50.122;18.972;2022-09-09T21:58:36;24.15;;;11.27;;
41039;SDS011;48586;50.122;18.972;2022-09-09T22:01:40;22.85;;;11.65;;
41039;SDS011;48586;50.122;18.972;2022-09-09T22:04:42;23.08;;;10.82;;
41039;SDS011;48586;50.122;18.972;2022-09-09T22:07:44;26.50;;;13.15;;
41039;SDS011;48586;50.122;18.972;2022-09-09T22:10:48;23.52;;;12.90;;
41039;SDS011;48586;50.122;18.972;2022-09-09T22:13:50;28.85;;;12.73;;
41039;SDS011;48586;50.122;18.972;2022-09-09T22:16:53;21.83;;;12.40;;
41039;SDS011;48586;50.122;18.972;2022-09-09T22:19:55;25.17;;;12.85;;
41039;SDS011;48586;50.122;18.972;2022-09-09T22:22:59;30.23;;;12.63;;
41039;SDS011;48586;50.122;18.972;2022-09-09T22:26:04;23.73;;;12.25;;
41039;SDS011;48586;50.122;18.972;2022-09-09T22:29:06;19.80;;;12.13;;
41039;SDS011;48586;50.122;18.972;2022-09-09T22:32:08;22.48;;;12.30;;
41039;SDS011;48586;50.122;18.972;2022-09-09T22:35:11;24.15;;;12.00;;
41039;SDS011;48586;50.122;18.972;2022-09-09T22:38:13;22.52;;;11.18;;
41039;SDS011;48586;50.122;18.972;2022-09-09T22:41:18;24.92;;;11.85;;
41039;SDS011;48586;50.122;18.972;2022-09-09T22:44:21;26.33;;;11.73;;
41039;SDS011;48586;50.122;18.972;2022-09-09T22:47:24;26.95;;;12.70;;
41039;SDS011;48586;50.122;18.972;2022-09-09T22:50:26;27.48;;;12.48;;
41039;SDS011;48586;50.122;18.972;2022-09-09T22:53:31;32.03;;;13.80;;
41039;SDS011;48586;50.122;18.972;2022-09-09T22:56:36;28.60;;;14.27;;
41039;SDS011;48586;50.122;18.972;2022-09-09T22:59:38;24.80;;;12.32;;
41039;SDS011;48586;50.122;18.972;2022-09-09T23:02:40;26.33;;;12.05;;
41039;SDS011;48586;50.122;18.972;2022-09-09T23:05:42;25.67;;;12.00;;
41039;SDS011;48586;50.122;18.972;2022-09-09T23:08:55;29.45;;;13.70;;
41039;SDS011;48586;50.122;18.972;2022-09-09T23:12:00;25.83;;;12.82;;
41039;SDS011;48586;50.122;18.972;2022-09-09T23:15:02;26.15;;;14.27;;
41039;SDS011;48586;50.122;18.972;2022-09-09T23:18:09;25.67;;;12.23;;
41039;SDS011;48586;50.122;18.972;2022-09-09T23:21:12;28.45;;;11.93;;
41039;SDS011;48586;50.122;18.972;2022-09-09T23:24:15;20.92;;;12.32;;
41039;SDS011;48586;50.122;18.972;2022-09-09T23:27:20;24.50;;;12.43;;
41039;SDS011;48586;50.122;18.972;2022-09-09T23:30:22;22.23;;;12.60;;
41039;SDS011;48586;50.122;18.972;2022-09-09T23:33:24;26.13;;;11.88;;
41039;SDS011;48586;50.122;18.972;2022-09-09T23:36:26;26.13;;;11.55;;
41039;SDS011;48586;50.122;18.972;2022-09-09T23:39:29;25.25;;;12.75;;
41039;SDS011;48586;50.122;18.972;2022-09-09T23:42:32;28.00;;;13.23;;
41039;SDS011;48586;50.122;18.972;2022-09-09T23:45:34;20.70;;;12.60;;
41039;SDS011;48586;50.122;18.972;2022-09-09T23:48:36;21.17;;;11.60;;
41039;SDS011;48586;50.122;18.972;2022-09-09T23:51:38;24.90;;;11.35;;
41039;SDS011;48586;50.122;18.972;2022-09-09T23:54:40;26.65;;;11.25;;
41039;SDS011;48586;50.122;18.972;2022-09-09T23:57:44;20.27;;;10.57;;
